sensor_id;sensor_type;location;lat;lon;timestamp;temperature;humidity
9977;DHT22;5029;47.378;11.776;2022-09-12T00:01:15;10.80;99.90
9977;DHT22;5029;47.378;11.776;2022-09-12T00:06:24;10.80;99.90
9977;DHT22;5029;47.378;11.776;2022-09-12T00:11:36;10.80;99.90
9977;DHT22;5029;47.378;11.776;2022-09-12T00:16:43;10.70;99.90
9977;DHT22;5029;47.378;11.776;2022-09-12T00:22:20;10.50;99.90
9977;DHT22;5029;47.378;11.776;2022-09-12T00:27:44;10.40;99.90
9977;DHT22;5029;47.378;11.776;2022-09-12T00:32:47;10.50;99.90
9977;DHT22;5029;47.378;11.776;2022-09-12T00:37:52;10.50;99.90
9977;DHT22;5029;47.378;11.776;2022-09-12T00:42:57;10.60;99.90
9977;DHT22;5029;47.378;11.776;2022-09-12T00:48:02;10.30;99.90
9977;DHT22;5029;47.378;11.776;2022-09-12T00:53:07;10.50;99.90
9977;DHT22;5029;47.378;11.776;2022-09-12T00:58:17;10.60;99.90
9977;DHT22;5029;47.378;11.776;2022-09-12T01:03:23;10.00;99.90
9977;DHT22;5029;47.378;11.776;2022-09-12T01:08:27;9.80;99.90
9977;DHT22;5029;47.378;11.776;2022-09-12T01:13:33;9.80;99.90
9977;DHT22;5029;47.378;11.776;2022-09-12T01:18:54;10.00;99.90
9977;DHT22;5029;47.378;11.776;2022-09-12T01:29:51;9.80;99.90
9977;DHT22;5029;47.378;11.776;2022-09-12T01:35:05;9.40;99.90
9977;DHT22;5029;47.378;11.776;2022-09-12T01:40:20;9.80;99.90
9977;DHT22;5029;47.378;11.776;2022-09-12T01:45:28;9.40;99.90
9977;DHT22;5029;47.378;11.776;2022-09-12T01:50:39;9.40;99.90
9977;DHT22;5029;47.378;11.776;2022-09-12T01:55:49;9.40;99.90
9977;DHT22;5029;47.378;11.776;2022-09-12T02:01:05;9.40;99.90
9977;DHT22;5029;47.378;11.776;2022-09-12T02:06:14;9.10;99.90
9977;DHT22;5029;47.378;11.776;2022-09-12T02:11:20;9.10;99.90
9977;DHT22;5029;47.378;11.776;2022-09-12T02:16:27;9.20;99.90
9977;DHT22;5029;47.378;11.776;2022-09-12T02:21:36;9.00;99.90
9977;DHT22;5029;47.378;11.776;2022-09-12T02:26:46;9.60;99.90
9977;DHT22;5029;47.378;11.776;2022-09-12T02:31:54;9.40;99.90
9977;DHT22;5029;47.378;11.776;2022-09-12T02:37:06;9.20;99.90
9977;DHT22;5029;47.378;11.776;2022-09-12T02:42:15;9.00;99.90
9977;DHT22;5029;47.378;11.776;2022-09-12T02:47:22;9.10;99.90
9977;DHT22;5029;47.378;11.776;2022-09-12T02:52:29;9.10;99.90
9977;DHT22;5029;47.378;11.776;2022-09-12T02:57:32;9.20;99.90
9977;DHT22;5029;47.378;11.776;2022-09-12T03:08:29;9.00;99.90
9977;DHT22;5029;47.378;11.776;2022-09-12T03:13:42;8.80;99.90
9977;DHT22;5029;47.378;11.776;2022-09-12T03:18:57;8.90;99.90
9977;DHT22;5029;47.378;11.776;2022-09-12T03:24:11;8.60;99.90
9977;DHT22;5029;47.378;11.776;2022-09-12T03:29:17;8.40;99.90
9977;DHT22;5029;47.378;11.776;2022-09-12T03:34:22;8.70;99.90
9977;DHT22;5029;47.378;11.776;2022-09-12T03:39:27;8.80;99.90
9977;DHT22;5029;47.378;11.776;2022-09-12T03:44:31;8.40;99.90
9977;DHT22;5029;47.378;11.776;2022-09-12T03:49:34;8.40;99.90
9977;DHT22;5029;47.378;11.776;2022-09-12T03:54:39;8.70;99.90
9977;DHT22;5029;47.378;11.776;2022-09-12T03:59:43;8.60;99.90
9977;DHT22;5029;47.378;11.776;2022-09-12T04:04:46;8.60;99.90
9977;DHT22;5029;47.378;11.776;2022-09-12T04:09:51;8.30;99.90
9977;DHT22;5029;47.378;11.776;2022-09-12T04:14:55;8.10;99.90
9977;DHT22;5029;47.378;11.776;2022-09-12T04:19:59;8.20;99.90
9977;DHT22;5029;47.378;11.776;2022-09-12T04:25:06;8.40;99.90
9977;DHT22;5029;47.378;11.776;2022-09-12T04:30:11;8.30;99.90
9977;DHT22;5029;47.378;11.776;2022-09-12T04:35:15;8.20;99.90
9977;DHT22;5029;47.378;11.776;2022-09-12T04:40:20;8.40;99.90
9977;DHT22;5029;47.378;11.776;2022-09-12T04:45:24;8.40;99.90
9977;DHT22;5029;47.378;11.776;2022-09-12T04:50:27;8.30;99.90
9977;DHT22;5029;47.378;11.776;2022-09-12T04:55:33;8.20;99.90
9977;DHT22;5029;47.378;11.776;2022-09-12T05:00:37;7.90;99.90
9977;DHT22;5029;47.378;11.776;2022-09-12T05:05:41;8.10;99.90
9977;DHT22;5029;47.378;11.776;2022-09-12T05:10:46;8.30;99.90
9977;DHT22;5029;47.378;11.776;2022-09-12T05:15:55;8.20;99.90
9977;DHT22;5029;47.378;11.776;2022-09-12T05:21:00;8.50;99.90
9977;DHT22;5029;47.378;11.776;2022-09-12T05:26:06;8.40;99.90
9977;DHT22;5029;47.378;11.776;2022-09-12T05:31:11;8.10;99.90
9977;DHT22;5029;47.378;11.776;2022-09-12T05:36:17;8.60;99.90
9977;DHT22;5029;47.378;11.776;2022-09-12T05:41:24;8.70;99.90
9977;DHT22;5029;47.378;11.776;2022-09-12T05:46:29;8.20;99.90
9977;DHT22;5029;47.378;11.776;2022-09-12T05:51:35;7.90;99.90
9977;DHT22;5029;47.378;11.776;2022-09-12T05:56:43;7.90;99.90
9977;DHT22;5029;47.378;11.776;2022-09-12T06:01:47;8.20;99.90
9977;DHT22;5029;47.378;11.776;2022-09-12T06:06:51;8.00;99.90
9977;DHT22;5029;47.378;11.776;2022-09-12T06:11:56;7.90;99.90
9977;DHT22;5029;47.378;11.776;2022-09-12T06:16:59;8.10;99.90
9977;DHT22;5029;47.378;11.776;2022-09-12T06:22:03;8.20;99.90
9977;DHT22;5029;47.378;11.776;2022-09-12T06:27:08;8.70;99.90
9977;DHT22;5029;47.378;11.776;2022-09-12T06:32:12;8.20;99.90
9977;DHT22;5029;47.378;11.776;2022-09-12T06:37:15;7.80;99.90
9977;DHT22;5029;47.378;11.776;2022-09-12T06:42:20;8.10;99.90
9977;DHT22;5029;47.378;11.776;2022-09-12T06:47:24;8.00;99.90
9977;DHT22;5029;47.378;11.776;2022-09-12T06:52:27;8.10;99.90
9977;DHT22;5029;47.378;11.776;2022-09-12T06:57:33;8.30;99.90
9977;DHT22;5029;47.378;11.776;2022-09-12T07:02:37;8.10;99.90
9977;DHT22;5029;47.378;11.776;2022-09-12T07:07:41;8.50;99.90
9977;DHT22;5029;47.378;11.776;2022-09-12T07:12:46;8.40;99.90
9977;DHT22;5029;47.378;11.776;2022-09-12T07:17:50;8.60;99.90
9977;DHT22;5029;47.378;11.776;2022-09-12T07:22:53;8.80;99.90
9977;DHT22;5029;47.378;11.776;2022-09-12T07:27:58;9.20;99.90
9977;DHT22;5029;47.378;11.776;2022-09-12T07:33:01;9.60;99.90
9977;DHT22;5029;47.378;11.776;2022-09-12T07:38:05;9.80;99.90
9977;DHT22;5029;47.378;11.776;2022-09-12T07:43:10;10.00;99.90
9977;DHT22;5029;47.378;11.776;2022-09-12T07:48:14;10.40;99.90
9977;DHT22;5029;47.378;11.776;2022-09-12T07:53:18;10.30;99.90
9977;DHT22;5029;47.378;11.776;2022-09-12T07:58:23;10.60;99.90
9977;DHT22;5029;47.378;11.776;2022-09-12T08:03:27;11.00;99.90
9977;DHT22;5029;47.378;11.776;2022-09-12T08:08:31;11.10;99.90
9977;DHT22;5029;47.378;11.776;2022-09-12T08:13:37;11.50;99.90
9977;DHT22;5029;47.378;11.776;2022-09-12T08:18:41;11.90;99.90
9977;DHT22;5029;47.378;11.776;2022-09-12T08:23:44;12.20;99.90
9977;DHT22;5029;47.378;11.776;2022-09-12T08:28:50;12.10;99.90
9977;DHT22;5029;47.378;11.776;2022-09-12T08:33:55;12.40;99.90
9977;DHT22;5029;47.378;11.776;2022-09-12T08:39:01;12.60;99.90
9977;DHT22;5029;47.378;11.776;2022-09-12T08:44:17;12.90;99.90
9977;DHT22;5029;47.378;11.776;2022-09-12T08:49:27;13.00;99.90
9977;DHT22;5029;47.378;11.776;2022-09-12T08:54:32;13.20;99.90
9977;DHT22;5029;47.378;11.776;2022-09-12T08:59:39;13.30;99.90
9977;DHT22;5029;47.378;11.776;2022-09-12T09:04:46;13.60;99.90
9977;DHT22;5029;47.378;11.776;2022-09-12T09:10:00;13.70;99.90
9977;DHT22;5029;47.378;11.776;2022-09-12T09:15:45;13.90;99.90
9977;DHT22;5029;47.378;11.776;2022-09-12T09:21:03;14.20;99.90
9977;DHT22;5029;47.378;11.776;2022-09-12T09:26:13;14.40;99.90
9977;DHT22;5029;47.378;11.776;2022-09-12T09:31:20;14.50;99.90
9977;DHT22;5029;47.378;11.776;2022-09-12T09:36:33;14.60;99.90
9977;DHT22;5029;47.378;11.776;2022-09-12T09:41:47;14.90;99.90
9977;DHT22;5029;47.378;11.776;2022-09-12T09:46:58;15.20;99.90
9977;DHT22;5029;47.378;11.776;2022-09-12T09:52:04;15.60;99.90
9977;DHT22;5029;47.378;11.776;2022-09-12T09:57:39;15.60;99.90
9977;DHT22;5029;47.378;11.776;2022-09-12T10:03:03;15.50;99.90
9977;DHT22;5029;47.378;11.776;2022-09-12T10:08:20;15.90;99.90
9977;DHT22;5029;47.378;11.776;2022-09-12T10:13:31;16.10;99.90
9977;DHT22;5029;47.378;11.776;2022-09-12T10:18:39;16.10;99.90
9977;DHT22;5029;47.378;11.776;2022-09-12T10:23:44;16.30;99.90
9977;DHT22;5029;47.378;11.776;2022-09-12T10:28:50;16.30;99.90
9977;DHT22;5029;47.378;11.776;2022-09-12T10:33:58;16.30;99.90
9977;DHT22;5029;47.378;11.776;2022-09-12T10:39:02;16.80;99.90
9977;DHT22;5029;47.378;11.776;2022-09-12T10:44:07;17.00;99.90
9977;DHT22;5029;47.378;11.776;2022-09-12T10:49:20;17.00;99.90
9977;DHT22;5029;47.378;11.776;2022-09-12T10:54:25;17.40;99.90
9977;DHT22;5029;47.378;11.776;2022-09-12T10:59:37;17.60;99.90
9977;DHT22;5029;47.378;11.776;2022-09-12T11:04:53;17.60;99.90
9977;DHT22;5029;47.378;11.776;2022-09-12T11:10:06;18.10;99.90
9977;DHT22;5029;47.378;11.776;2022-09-12T11:15:31;17.60;99.90
9977;DHT22;5029;47.378;11.776;2022-09-12T11:21:01;17.90;99.90
9977;DHT22;5029;47.378;11.776;2022-09-12T11:26:21;18.50;99.90
9977;DHT22;5029;47.378;11.776;2022-09-12T11:32:02;18.80;99.90
9977;DHT22;5029;47.378;11.776;2022-09-12T11:37:24;19.20;99.90
9977;DHT22;5029;47.378;11.776;2022-09-12T11:42:38;19.10;1.00
9977;DHT22;5029;47.378;11.776;2022-09-12T11:47:45;19.20;99.90
9977;DHT22;5029;47.378;11.776;2022-09-12T11:52:56;19.50;99.90
9977;DHT22;5029;47.378;11.776;2022-09-12T11:58:02;19.40;99.90
9977;DHT22;5029;47.378;11.776;2022-09-12T12:03:12;19.30;1.00
9977;DHT22;5029;47.378;11.776;2022-09-12T12:08:20;19.30;1.00
9977;DHT22;5029;47.378;11.776;2022-09-12T12:13:27;19.10;1.00
9977;DHT22;5029;47.378;11.776;2022-09-12T12:18:33;19.50;1.00
9977;DHT22;5029;47.378;11.776;2022-09-12T12:24:00;20.10;1.00
9977;DHT22;5029;47.378;11.776;2022-09-12T12:29:07;20.50;1.00
9977;DHT22;5029;47.378;11.776;2022-09-12T12:34:26;19.80;1.00
9977;DHT22;5029;47.378;11.776;2022-09-12T12:50:45;20.20;1.00
9977;DHT22;5029;47.378;11.776;2022-09-12T12:55:51;20.40;1.00
9977;DHT22;5029;47.378;11.776;2022-09-12T13:01:09;20.50;1.00
9977;DHT22;5029;47.378;11.776;2022-09-12T13:06:28;20.20;1.00
9977;DHT22;5029;47.378;11.776;2022-09-12T13:11:35;20.40;1.00
9977;DHT22;5029;47.378;11.776;2022-09-12T13:16:53;20.20;1.00
9977;DHT22;5029;47.378;11.776;2022-09-12T13:22:01;20.50;1.00
9977;DHT22;5029;47.378;11.776;2022-09-12T13:27:16;20.50;1.00
9977;DHT22;5029;47.378;11.776;2022-09-12T13:32:21;20.70;1.00
9977;DHT22;5029;47.378;11.776;2022-09-12T13:37:39;20.60;1.00
9977;DHT22;5029;47.378;11.776;2022-09-12T13:43:01;21.10;1.00
9977;DHT22;5029;47.378;11.776;2022-09-12T13:48:14;21.10;1.00
9977;DHT22;5029;47.378;11.776;2022-09-12T13:53:21;21.00;1.00
9977;DHT22;5029;47.378;11.776;2022-09-12T13:58:27;20.90;1.00
9977;DHT22;5029;47.378;11.776;2022-09-12T14:03:37;21.60;1.00
9977;DHT22;5029;47.378;11.776;2022-09-12T14:09:00;20.60;1.00
9977;DHT22;5029;47.378;11.776;2022-09-12T14:14:05;21.00;1.00
9977;DHT22;5029;47.378;11.776;2022-09-12T14:19:11;21.00;1.00
9977;DHT22;5029;47.378;11.776;2022-09-12T14:24:17;21.20;1.00
9977;DHT22;5029;47.378;11.776;2022-09-12T14:29:25;21.20;1.00
9977;DHT22;5029;47.378;11.776;2022-09-12T14:34:31;21.30;1.00
9977;DHT22;5029;47.378;11.776;2022-09-12T14:39:37;21.00;1.00
9977;DHT22;5029;47.378;11.776;2022-09-12T14:44:51;21.00;1.00
9977;DHT22;5029;47.378;11.776;2022-09-12T14:49:58;21.40;1.00
9977;DHT22;5029;47.378;11.776;2022-09-12T14:55:28;22.20;1.00
9977;DHT22;5029;47.378;11.776;2022-09-12T15:00:33;21.50;1.00
9977;DHT22;5029;47.378;11.776;2022-09-12T15:05:47;22.10;1.00
9977;DHT22;5029;47.378;11.776;2022-09-12T15:10:51;21.20;1.00
9977;DHT22;5029;47.378;11.776;2022-09-12T15:15:56;21.50;1.00
9977;DHT22;5029;47.378;11.776;2022-09-12T15:21:05;20.60;1.00
9977;DHT22;5029;47.378;11.776;2022-09-12T15:26:15;19.90;1.00
9977;DHT22;5029;47.378;11.776;2022-09-12T15:31:25;20.40;1.00
9977;DHT22;5029;47.378;11.776;2022-09-12T15:36:31;20.00;1.00
9977;DHT22;5029;47.378;11.776;2022-09-12T15:41:36;19.90;1.00
9977;DHT22;5029;47.378;11.776;2022-09-12T15:46:41;20.10;1.00
9977;DHT22;5029;47.378;11.776;2022-09-12T15:51:46;20.00;1.00
9977;DHT22;5029;47.378;11.776;2022-09-12T15:56:50;20.60;1.00
9977;DHT22;5029;47.378;11.776;2022-09-12T16:01:53;20.10;1.00
9977;DHT22;5029;47.378;11.776;2022-09-12T16:06:59;20.10;1.00
9977;DHT22;5029;47.378;11.776;2022-09-12T16:12:03;19.60;1.00
9977;DHT22;5029;47.378;11.776;2022-09-12T16:17:06;19.70;1.00
9977;DHT22;5029;47.378;11.776;2022-09-12T16:22:12;19.80;1.00
9977;DHT22;5029;47.378;11.776;2022-09-12T16:27:15;19.80;1.00
9977;DHT22;5029;47.378;11.776;2022-09-12T16:32:19;19.80;1.00
9977;DHT22;5029;47.378;11.776;2022-09-12T16:37:24;19.60;1.00
9977;DHT22;5029;47.378;11.776;2022-09-12T16:42:28;19.40;1.00
9977;DHT22;5029;47.378;11.776;2022-09-12T16:47:32;19.60;1.00
9977;DHT22;5029;47.378;11.776;2022-09-12T16:52:37;18.20;99.90
9977;DHT22;5029;47.378;11.776;2022-09-12T16:57:40;17.90;99.90
9977;DHT22;5029;47.378;11.776;2022-09-12T17:02:47;17.70;99.90
9977;DHT22;5029;47.378;11.776;2022-09-12T17:07:52;17.30;99.90
9977;DHT22;5029;47.378;11.776;2022-09-12T17:12:57;16.90;99.90
9977;DHT22;5029;47.378;11.776;2022-09-12T17:18:01;16.60;99.90
9977;DHT22;5029;47.378;11.776;2022-09-12T17:23:06;16.50;99.90
9977;DHT22;5029;47.378;11.776;2022-09-12T17:28:10;16.40;99.90
9977;DHT22;5029;47.378;11.776;2022-09-12T17:33:14;16.20;99.90
9977;DHT22;5029;47.378;11.776;2022-09-12T17:38:20;16.10;99.90
9977;DHT22;5029;47.378;11.776;2022-09-12T17:43:26;16.00;99.90
9977;DHT22;5029;47.378;11.776;2022-09-12T17:48:30;15.80;99.90
9977;DHT22;5029;47.378;11.776;2022-09-12T17:53:36;15.40;99.90
9977;DHT22;5029;47.378;11.776;2022-09-12T17:58:40;15.50;99.90
9977;DHT22;5029;47.378;11.776;2022-09-12T18:03:56;15.20;99.90
9977;DHT22;5029;47.378;11.776;2022-09-12T18:09:08;15.10;99.90
9977;DHT22;5029;47.378;11.776;2022-09-12T18:14:42;14.80;99.90
9977;DHT22;5029;47.378;11.776;2022-09-12T18:19:58;14.60;99.90
9977;DHT22;5029;47.378;11.776;2022-09-12T18:25:19;14.60;99.90
9977;DHT22;5029;47.378;11.776;2022-09-12T18:30:37;14.60;99.90
9977;DHT22;5029;47.378;11.776;2022-09-12T18:35:48;14.30;99.90
9977;DHT22;5029;47.378;11.776;2022-09-12T18:41:09;14.00;99.90
9977;DHT22;5029;47.378;11.776;2022-09-12T18:46:49;14.00;99.90
9977;DHT22;5029;47.378;11.776;2022-09-12T19:05:21;13.50;99.90
9977;DHT22;5029;47.378;11.776;2022-09-12T19:10:44;13.90;99.90
9977;DHT22;5029;47.378;11.776;2022-09-12T19:16:06;13.20;99.90
9977;DHT22;5029;47.378;11.776;2022-09-12T19:21:35;13.20;99.90
9977;DHT22;5029;47.378;11.776;2022-09-12T19:27:21;14.00;99.90
9977;DHT22;5029;47.378;11.776;2022-09-12T19:32:30;13.50;99.90
9977;DHT22;5029;47.378;11.776;2022-09-12T19:37:42;13.60;99.90
9977;DHT22;5029;47.378;11.776;2022-09-12T19:42:53;12.80;99.90
9977;DHT22;5029;47.378;11.776;2022-09-12T19:48:16;13.10;99.90
9977;DHT22;5029;47.378;11.776;2022-09-12T19:53:33;12.60;99.90
9977;DHT22;5029;47.378;11.776;2022-09-12T19:58:57;12.40;99.90
9977;DHT22;5029;47.378;11.776;2022-09-12T20:04:20;12.40;99.90
9977;DHT22;5029;47.378;11.776;2022-09-12T20:09:43;12.70;99.90
9977;DHT22;5029;47.378;11.776;2022-09-12T20:14:48;12.60;99.90
9977;DHT22;5029;47.378;11.776;2022-09-12T20:19:52;12.80;99.90
9977;DHT22;5029;47.378;11.776;2022-09-12T20:24:57;12.70;99.90
9977;DHT22;5029;47.378;11.776;2022-09-12T20:30:02;12.60;99.90
9977;DHT22;5029;47.378;11.776;2022-09-12T20:35:07;12.20;99.90
9977;DHT22;5029;47.378;11.776;2022-09-12T20:40:13;11.90;99.90
9977;DHT22;5029;47.378;11.776;2022-09-12T20:45:17;12.40;99.90
9977;DHT22;5029;47.378;11.776;2022-09-12T20:50:23;12.90;99.90
9977;DHT22;5029;47.378;11.776;2022-09-12T20:55:30;13.00;99.90
9977;DHT22;5029;47.378;11.776;2022-09-12T21:00:37;12.90;99.90
9977;DHT22;5029;47.378;11.776;2022-09-12T21:05:44;12.60;99.90
9977;DHT22;5029;47.378;11.776;2022-09-12T21:10:50;12.50;99.90
9977;DHT22;5029;47.378;11.776;2022-09-12T21:15:57;11.80;99.90
9977;DHT22;5029;47.378;11.776;2022-09-12T21:21:01;11.90;99.90
9977;DHT22;5029;47.378;11.776;2022-09-12T21:26:07;12.20;99.90
9977;DHT22;5029;47.378;11.776;2022-09-12T21:31:11;12.40;99.90
9977;DHT22;5029;47.378;11.776;2022-09-12T21:36:15;11.90;99.90
9977;DHT22;5029;47.378;11.776;2022-09-12T21:41:20;12.00;99.90
9977;DHT22;5029;47.378;11.776;2022-09-12T21:46:25;11.80;99.90
9977;DHT22;5029;47.378;11.776;2022-09-12T21:51:29;12.00;99.90
9977;DHT22;5029;47.378;11.776;2022-09-12T21:56:34;11.50;99.90
9977;DHT22;5029;47.378;11.776;2022-09-12T22:01:40;11.70;99.90
9977;DHT22;5029;47.378;11.776;2022-09-12T22:06:44;11.80;99.90
9977;DHT22;5029;47.378;11.776;2022-09-12T22:11:52;11.50;99.90
9977;DHT22;5029;47.378;11.776;2022-09-12T22:16:56;11.10;99.90
9977;DHT22;5029;47.378;11.776;2022-09-12T22:22:00;10.70;99.90
9977;DHT22;5029;47.378;11.776;2022-09-12T22:27:23;11.10;99.90
9977;DHT22;5029;47.378;11.776;2022-09-12T22:38:16;11.10;99.90
9977;DHT22;5029;47.378;11.776;2022-09-12T22:43:21;11.40;99.90
9977;DHT22;5029;47.378;11.776;2022-09-12T22:48:25;11.70;99.90
9977;DHT22;5029;47.378;11.776;2022-09-12T22:53:29;11.70;99.90
9977;DHT22;5029;47.378;11.776;2022-09-12T22:58:36;11.60;99.90
9977;DHT22;5029;47.378;11.776;2022-09-12T23:03:40;11.10;99.90
9977;DHT22;5029;47.378;11.776;2022-09-12T23:08:44;10.80;99.90
9977;DHT22;5029;47.378;11.776;2022-09-12T23:13:50;10.80;99.90
9977;DHT22;5029;47.378;11.776;2022-09-12T23:18:53;11.00;99.90
9977;DHT22;5029;47.378;11.776;2022-09-12T23:24:00;11.10;99.90
9977;DHT22;5029;47.378;11.776;2022-09-12T23:29:08;11.20;99.90
9977;DHT22;5029;47.378;11.776;2022-09-12T23:34:14;11.20;99.90
9977;DHT22;5029;47.378;11.776;2022-09-12T23:39:21;10.60;99.90
9977;DHT22;5029;47.378;11.776;2022-09-12T23:44:34;10.50;99.90
9977;DHT22;5029;47.378;11.776;2022-09-12T23:49:37;9.80;99.90
9977;DHT22;5029;47.378;11.776;2022-09-12T23:54:41;10.10;99.90
9977;DHT22;5029;47.378;11.776;2022-09-12T23:59:57;10.40;99.90
